Time,TemperatureF,DewpointF,PressureIn,WindDirection,WindDirectionDegrees,WindSpeedMPH,WindSpeedGustMPH,Humidity,HourlyPrecipIn,Conditions,Clouds,dailyrainin,SoftwareType,DateUTC
2013-02-05 00:03:00,23.4,4.2,17.72,SE,144,0.0,0.0,43,0.00,,---,0.00,VWS V14.00,2013-02-05 07:03:00,
2013-02-05 00:08:00,23.4,4.7,17.72,SE,144,0.0,0.0,44,0.00,,---,0.00,VWS V14.00,2013-02-05 07:08:00,
2013-02-05 00:13:00,23.4,4.7,17.72,SE,144,0.0,0.0,44,0.00,,---,0.00,VWS V14.00,2013-02-05 07:13:00,
2013-02-05 00:18:00,23.2,4.5,17.72,SE,144,0.0,0.0,44,0.00,,---,0.00,VWS V14.00,2013-02-05 07:18:00,
2013-02-05 00:23:00,23.2,4.5,17.72,SE,144,0.0,0.0,44,0.00,,---,0.00,VWS V14.00,2013-02-05 07:23:00,
2013-02-05 00:28:00,22.8,4.2,17.72,SE,144,0.0,0.0,44,0.00,,---,0.00,VWS V14.00,2013-02-05 07:28:00,
2013-02-05 00:33:00,22.8,4.2,17.72,SE,144,0.0,0.0,44,0.00,,---,0.00,VWS V14.00,2013-02-05 07:33:00,
2013-02-05 00:38:00,22.8,4.2,17.72,SE,144,0.0,0.0,44,0.00,,---,0.00,VWS V14.00,2013-02-05 07:38:00,
2013-02-05 00:43:00,22.8,4.2,17.72,SE,144,0.0,0.0,44,0.00,,---,0.00,VWS V14.00,2013-02-05 07:43:00,
2013-02-05 00:48:00,22.6,4.0,17.72,SE,144,0.0,0.0,44,0.00,,---,0.00,VWS V14.00,2013-02-05 07:48:00,
2013-02-05 00:53:00,22.6,4.0,17.72,SE,144,0.0,0.0,44,0.00,,---,0.00,VWS V14.00,2013-02-05 07:53:00,
2013-02-05 00:58:00,22.3,3.7,17.72,SE,144,0.0,0.0,44,0.00,,---,0.00,VWS V14.00,2013-02-05 07:58:00,
2013-02-05 01:04:00,22.1,3.5,17.72,SE,144,0.0,0.0,44,0.00,,---,0.00,VWS V14.00,2013-02-05 08:04:00,
2013-02-05 01:09:00,22.1,4.0,17.72,SE,144,0.0,0.0,45,0.00,,---,0.00,VWS V14.00,2013-02-05 08:09:00,
2013-02-05 01:14:00,21.9,3.8,17.72,SE,144,0.0,0.0,45,0.00,,---,0.00,VWS V14.00,2013-02-05 08:14:00,
2013-02-05 01:19:00,21.9,3.8,17.72,SE,144,0.0,0.0,45,0.00,,---,0.00,VWS V14.00,2013-02-05 08:19:00,
2013-02-05 01:24:00,21.9,3.8,17.72,SE,144,0.0,0.0,45,0.00,,---,0.00,VWS V14.00,2013-02-05 08:24:00,
2013-02-05 01:29:00,21.9,3.8,17.72,SE,144,0.0,0.0,45,0.00,,---,0.00,VWS V14.00,2013-02-05 08:29:00,
2013-02-05 01:34:00,21.7,3.7,17.72,SE,144,0.0,0.0,45,0.00,,---,0.00,VWS V14.00,2013-02-05 08:34:00,
2013-02-05 01:39:00,21.7,3.7,17.72,SE,144,0.0,0.0,45,0.00,,---,0.00,VWS V14.00,2013-02-05 08:39:00,
2013-02-05 01:44:00,21.6,3.5,17.72,SE,144,0.0,0.0,45,0.00,,---,0.00,VWS V14.00,2013-02-05 08:44:00,
2013-02-05 01:49:00,21.6,3.5,17.72,SE,144,0.0,0.0,45,0.00,,---,0.00,VWS V14.00,2013-02-05 08:49:00,
2013-02-05 01:54:00,21.4,3.3,17.72,SE,144,0.0,0.0,45,0.00,,---,0.00,VWS V14.00,2013-02-05 08:54:00,
2013-02-05 01:59:00,21.2,3.2,17.72,SE,144,0.0,0.0,45,0.00,,---,0.00,VWS V14.00,2013-02-05 08:59:00,
2013-02-05 02:04:00,21.2,3.2,17.72,SE,144,0.0,0.0,45,0.00,,---,0.00,VWS V14.00,2013-02-05 09:04:00,
2013-02-05 02:09:00,21.2,3.2,17.72,SE,144,0.0,0.0,45,0.00,,---,0.00,VWS V14.00,2013-02-05 09:09:00,
2013-02-05 03:25:00,20.3,2.8,17.72,SE,144,0.0,0.0,46,0.00,,---,0.00,VWS V14.00,2013-02-05 10:25:00,
2013-02-05 03:30:00,20.3,2.8,17.72,SE,144,0.0,0.0,46,0.00,,---,0.00,VWS V14.00,2013-02-05 10:30:00,
2013-02-05 03:35:00,20.1,2.7,17.72,SE,144,0.0,0.0,46,0.00,,---,0.00,VWS V14.00,2013-02-05 10:35:00,
2013-02-05 03:40:00,19.9,2.5,17.72,SE,144,0.0,0.0,46,0.00,,---,0.00,VWS V14.00,2013-02-05 10:40:00,
2013-02-05 03:46:00,19.9,2.5,17.72,SE,144,0.0,0.0,46,0.00,,---,0.00,VWS V14.00,2013-02-05 10:46:00,
2013-02-05 03:51:00,20.1,2.7,17.72,SE,144,0.0,0.0,46,0.00,,---,0.00,VWS V14.00,2013-02-05 10:51:00,
2013-02-05 03:56:00,19.9,2.5,17.72,SE,144,0.0,0.0,46,0.00,,---,0.00,VWS V14.00,2013-02-05 10:56:00,
2013-02-05 04:01:00,20.1,2.7,17.72,SE,144,0.0,0.0,46,0.00,,---,0.00,VWS V14.00,2013-02-05 11:01:00,
2013-02-05 04:06:00,20.1,2.7,17.72,SE,144,0.0,0.0,46,0.00,,---,0.00,VWS V14.00,2013-02-05 11:06:00,
2013-02-05 04:11:00,20.3,2.8,17.72,SE,144,0.0,0.0,46,0.00,,---,0.00,VWS V14.00,2013-02-05 11:11:00,
2013-02-05 04:16:00,20.1,2.7,17.72,SE,144,0.0,0.0,46,0.00,,---,0.00,VWS V14.00,2013-02-05 11:16:00,
2013-02-05 04:21:00,19.9,2.5,17.72,SE,144,0.0,0.0,46,0.00,,---,0.00,VWS V14.00,2013-02-05 11:21:00,
2013-02-05 04:26:00,19.8,2.3,17.72,SE,144,0.0,0.0,46,0.00,,---,0.00,VWS V14.00,2013-02-05 11:26:00,
2013-02-05 04:31:00,19.8,2.3,17.72,SE,144,0.0,0.0,46,0.00,,---,0.00,VWS V14.00,2013-02-05 11:31:00,
2013-02-05 04:36:00,19.6,2.2,17.72,SE,144,0.0,0.0,46,0.00,,---,0.00,VWS V14.00,2013-02-05 11:36:00,
2013-02-05 04:41:00,19.4,2.0,17.72,SE,144,0.0,0.0,46,0.00,,---,0.00,VWS V14.00,2013-02-05 11:41:00,
2013-02-05 04:46:00,19.4,2.0,17.72,SE,144,0.0,0.0,46,0.00,,---,0.00,VWS V14.00,2013-02-05 11:46:00,
2013-02-05 04:51:00,19.4,2.0,17.72,SE,144,0.0,0.0,46,0.00,,---,0.00,VWS V14.00,2013-02-05 11:51:00,
2013-02-05 04:56:00,19.4,2.0,17.72,SE,144,0.0,0.0,46,0.00,,---,0.00,VWS V14.00,2013-02-05 11:56:00,
2013-02-05 05:01:00,19.4,2.0,17.72,SE,144,0.0,0.0,46,0.00,,---,0.00,VWS V14.00,2013-02-05 12:01:00,
2013-02-05 05:06:00,19.4,2.0,17.72,SE,144,0.0,0.0,46,0.00,,---,0.00,VWS V14.00,2013-02-05 12:06:00,
2013-02-05 05:11:00,19.6,2.2,17.72,SE,144,0.0,0.0,46,0.00,,---,0.00,VWS V14.00,2013-02-05 12:11:00,
2013-02-05 05:16:00,19.6,2.2,17.72,SE,144,0.0,0.0,46,0.00,,---,0.00,VWS V14.00,2013-02-05 12:16:00,
2013-02-05 05:21:00,19.6,2.2,17.72,SE,144,0.0,0.0,46,0.00,,---,0.00,VWS V14.00,2013-02-05 12:21:00,
2013-02-05 05:26:00,19.4,2.0,17.72,SE,144,0.0,0.0,46,0.00,,---,0.00,VWS V14.00,2013-02-05 12:26:00,
2013-02-05 05:31:00,19.4,2.0,17.72,SE,144,0.0,0.0,46,0.00,,---,0.00,VWS V14.00,2013-02-05 12:31:00,
2013-02-05 05:36:00,19.2,1.8,17.72,SE,144,0.0,0.0,46,0.00,,---,0.00,VWS V14.00,2013-02-05 12:36:00,
2013-02-05 05:42:00,19.0,1.7,17.72,SE,144,0.0,0.0,46,0.00,,---,0.00,VWS V14.00,2013-02-05 12:42:00,
2013-02-05 05:47:00,18.9,1.5,17.72,SE,144,0.0,0.0,46,0.00,,---,0.00,VWS V14.00,2013-02-05 12:47:00,
2013-02-05 05:52:00,18.9,1.5,17.72,SE,144,0.0,0.0,46,0.00,,---,0.00,VWS V14.00,2013-02-05 12:52:00,
2013-02-05 05:57:00,18.9,1.5,17.72,SE,144,0.0,0.0,46,0.00,,---,0.00,VWS V14.00,2013-02-05 12:57:00,
2013-02-05 06:02:00,18.9,1.5,17.72,SE,144,0.0,0.0,46,0.00,,---,0.00,VWS V14.00,2013-02-05 13:02:00,
2013-02-05 06:07:00,18.7,1.4,17.72,SE,144,0.0,0.0,46,0.00,,---,0.00,VWS V14.00,2013-02-05 13:07:00,
2013-02-05 06:12:00,18.9,1.5,17.72,SE,144,0.0,0.0,46,0.00,,---,0.00,VWS V14.00,2013-02-05 13:12:00,
2013-02-05 06:17:00,18.9,1.5,17.72,SE,144,0.0,0.0,46,0.00,,---,0.00,VWS V14.00,2013-02-05 13:17:00,
2013-02-05 06:22:00,18.7,1.4,17.72,SE,144,0.0,0.0,46,0.00,,---,0.00,VWS V14.00,2013-02-05 13:22:00,
2013-02-05 06:27:00,18.5,1.2,17.72,SE,144,0.0,0.0,46,0.00,,---,0.00,VWS V14.00,2013-02-05 13:27:00,
2013-02-05 06:32:00,18.5,1.2,17.72,SE,144,0.0,0.0,46,0.00,,---,0.00,VWS V14.00,2013-02-05 13:32:00,
2013-02-05 06:37:00,18.5,1.2,17.72,SE,144,0.0,0.0,46,0.00,,---,0.00,VWS V14.00,2013-02-05 13:37:00,
2013-02-05 06:42:00,18.3,1.0,17.72,SE,144,0.0,0.0,46,0.00,,---,0.00,VWS V14.00,2013-02-05 13:42:00,
2013-02-05 06:47:00,18.3,1.0,17.72,SE,144,0.0,0.0,46,0.00,,---,0.00,VWS V14.00,2013-02-05 13:47:00,
2013-02-05 06:52:00,18.1,0.9,17.72,SE,144,0.0,0.0,46,0.00,,---,0.00,VWS V14.00,2013-02-05 13:52:00,
2013-02-05 06:57:00,18.3,1.0,17.72,SE,144,0.0,0.0,46,0.00,,---,0.00,VWS V14.00,2013-02-05 13:57:00,
2013-02-05 07:02:00,18.3,1.0,17.72,SE,144,0.0,0.0,46,0.00,,---,0.00,VWS V14.00,2013-02-05 14:02:00,
2013-02-05 07:07:00,18.3,1.0,17.72,SE,144,0.0,0.0,46,0.00,,---,0.00,VWS V14.00,2013-02-05 14:07:00,
2013-02-05 07:12:00,18.3,1.0,17.72,SE,144,0.0,0.0,46,0.00,,---,0.00,VWS V14.00,2013-02-05 14:12:00,
2013-02-05 07:17:00,18.3,1.0,17.72,SE,144,0.0,0.0,46,0.00,,---,0.00,VWS V14.00,2013-02-05 14:17:00,
2013-02-05 07:22:00,18.3,1.0,17.72,SE,144,0.0,0.0,46,0.00,,---,0.00,VWS V14.00,2013-02-05 14:22:00,
2013-02-05 07:27:00,18.1,0.9,17.72,SE,144,0.0,0.0,46,0.00,,---,0.00,VWS V14.00,2013-02-05 14:27:00,
2013-02-05 07:32:00,18.1,0.9,17.72,SE,144,0.0,0.0,46,0.00,,---,0.00,VWS V14.00,2013-02-05 14:32:00,
2013-02-05 07:38:00,18.0,0.7,17.72,SE,144,0.0,0.0,46,0.00,,---,0.00,VWS V14.00,2013-02-05 14:38:00,
2013-02-05 07:43:00,18.0,0.7,17.72,SE,144,0.0,0.0,46,0.00,,---,0.00,VWS V14.00,2013-02-05 14:43:00,
2013-02-05 07:48:00,18.1,0.9,17.72,SE,144,0.0,0.0,46,0.00,,---,0.00,VWS V14.00,2013-02-05 14:48:00,
2013-02-05 07:53:00,18.1,0.9,17.72,SE,144,0.0,0.0,46,0.00,,---,0.00,VWS V14.00,2013-02-05 14:53:00,
2013-02-05 07:58:00,18.5,1.6,17.72,SE,144,0.0,0.0,47,0.00,,---,0.00,VWS V14.00,2013-02-05 14:58:00,
2013-02-05 08:03:00,18.9,2.0,17.72,SE,144,0.0,0.0,47,0.00,,---,0.00,VWS V14.00,2013-02-05 15:03:00,
2013-02-05 08:08:00,19.2,2.3,17.72,SE,144,0.0,0.0,47,0.00,,---,0.00,VWS V14.00,2013-02-05 15:08:00,
2013-02-05 08:13:00,19.6,2.2,17.72,SE,144,0.0,0.0,46,0.00,,---,0.00,VWS V14.00,2013-02-05 15:13:00,
2013-02-05 08:18:00,20.1,2.7,17.72,SE,144,0.0,0.0,46,0.00,,---,0.00,VWS V14.00,2013-02-05 15:18:00,
2013-02-05 08:23:00,20.3,2.8,17.72,SE,144,0.0,0.0,46,0.00,,---,0.00,VWS V14.00,2013-02-05 15:23:00,
2013-02-05 08:28:00,20.8,3.8,17.72,SE,144,0.0,0.0,47,0.00,,---,0.00,VWS V14.00,2013-02-05 15:28:00,
2013-02-05 08:33:00,21.6,4.0,17.72,SE,144,0.0,0.0,46,0.00,,---,0.00,VWS V14.00,2013-02-05 15:33:00,
2013-02-05 08:38:00,21.9,4.3,17.72,SE,144,0.0,0.0,46,0.00,,---,0.00,VWS V14.00,2013-02-05 15:38:00,
2013-02-05 08:43:00,22.6,5.5,17.72,SE,144,0.0,0.0,47,0.00,,---,0.00,VWS V14.00,2013-02-05 15:43:00,
2013-02-05 08:48:00,23.2,5.5,17.72,SE,144,0.0,0.0,46,0.00,,---,0.00,VWS V14.00,2013-02-05 15:48:00,
2013-02-05 08:53:00,23.9,6.1,17.72,SE,144,0.0,0.0,46,0.00,,---,0.00,VWS V14.00,2013-02-05 15:53:00,
2013-02-05 08:58:00,24.8,7.0,17.72,SE,144,0.0,0.0,46,0.00,,---,0.00,VWS V14.00,2013-02-05 15:58:00,
2013-02-05 09:03:00,25.7,7.8,17.72,SE,144,0.0,0.0,46,0.00,,---,0.00,VWS V14.00,2013-02-05 16:03:00,
2013-02-05 09:08:00,26.6,8.6,17.72,SE,144,0.0,0.0,46,0.00,,---,0.00,VWS V14.00,2013-02-05 16:08:00,
2013-02-05 09:13:00,27.7,9.6,17.72,SE,144,0.0,0.0,46,0.00,,---,0.00,VWS V14.00,2013-02-05 16:13:00,
2013-02-05 09:18:00,28.6,9.9,17.72,SE,144,0.0,0.0,45,0.00,,---,0.00,VWS V14.00,2013-02-05 16:18:00,
2013-02-05 09:23:00,29.5,10.8,17.72,SE,144,0.0,0.0,45,0.00,,---,0.00,VWS V14.00,2013-02-05 16:23:00,
2013-02-05 09:29:00,30.9,11.1,17.72,SE,144,0.0,0.0,43,0.00,,---,0.00,VWS V14.00,2013-02-05 16:29:00,
2013-02-05 09:34:00,32.2,11.7,17.72,SE,144,0.0,0.0,42,0.00,,---,0.00,VWS V14.00,2013-02-05 16:34:00,
2013-02-05 09:39:00,33.3,12.1,17.72,SE,144,0.0,0.0,41,0.00,,---,0.00,VWS V14.00,2013-02-05 16:39:00,
2013-02-05 09:44:00,34.3,13.1,17.72,SE,144,0.0,0.0,41,0.00,,---,0.00,VWS V14.00,2013-02-05 16:44:00,
2013-02-05 09:49:00,35.6,13.7,17.72,SE,144,0.0,0.0,40,0.00,,---,0.00,VWS V14.00,2013-02-05 16:49:00,
2013-02-05 09:54:00,37.0,15.0,17.72,SE,145,0.0,0.0,40,0.00,,---,0.00,VWS V14.00,2013-02-05 16:54:00,
2013-02-05 09:59:00,38.7,15.9,17.72,South,176,0.0,0.0,39,0.00,,---,0.00,VWS V14.00,2013-02-05 16:59:00,
2013-02-05 10:04:00,40.1,17.1,17.72,South,183,0.0,0.0,39,0.00,,---,0.00,VWS V14.00,2013-02-05 17:04:00,
2013-02-05 10:09:00,41.7,18.6,17.72,South,183,0.0,0.0,39,0.00,,---,0.00,VWS V14.00,2013-02-05 17:09:00,
2013-02-05 10:14:00,43.3,19.5,17.72,West,262,0.0,0.0,38,0.00,,---,0.00,VWS V14.00,2013-02-05 17:14:00,
2013-02-05 10:19:00,44.2,20.3,17.72,West,268,0.0,0.0,38,0.00,,---,0.00,VWS V14.00,2013-02-05 17:19:00,
2013-02-05 10:24:00,45.9,21.7,17.72,South,191,0.0,0.0,38,0.00,,---,0.00,VWS V14.00,2013-02-05 17:24:00,
2013-02-05 10:29:00,46.8,21.9,17.72,North,353,2.2,3.1,37,0.00,,---,0.00,VWS V14.00,2013-02-05 17:29:00,
2013-02-05 10:34:00,47.3,22.4,17.72,NNE,32,0.0,0.0,37,0.00,,---,0.00,VWS V14.00,2013-02-05 17:34:00,
2013-02-05 10:39:00,48.2,23.2,17.72,East,82,2.2,2.7,37,0.00,,---,0.00,VWS V14.00,2013-02-05 17:39:00,
2013-02-05 10:45:00,49.5,24.3,17.72,SSE,149,3.1,3.1,37,0.00,,---,0.00,VWS V14.00,2013-02-05 17:45:00,
2013-02-05 10:50:00,50.7,25.4,17.72,ESE,109,3.6,4.0,37,0.00,,---,0.00,VWS V14.00,2013-02-05 17:50:00,
2013-02-05 10:55:00,51.1,25.7,17.72,East,89,2.7,3.6,37,0.00,,---,0.00,VWS V14.00,2013-02-05 17:55:00,
2013-02-05 11:00:00,51.1,25.7,17.72,SSE,149,3.6,4.0,37,0.00,,---,0.00,VWS V14.00,2013-02-05 18:00:00,
2013-02-05 11:05:00,53.1,26.8,17.72,SSE,151,0.0,0.0,36,0.00,,---,0.00,VWS V14.00,2013-02-05 18:05:00,
2013-02-05 11:10:00,53.8,27.5,17.72,East,95,2.7,2.7,36,0.00,,---,0.00,VWS V14.00,2013-02-05 18:10:00,
2013-02-05 11:15:00,54.5,28.1,17.72,East,89,3.1,3.1,36,0.00,,---,0.00,VWS V14.00,2013-02-05 18:15:00,
2013-02-05 11:20:00,56.5,29.2,17.72,SSW,204,0.0,0.0,35,0.00,,---,0.00,VWS V14.00,2013-02-05 18:20:00,
2013-02-05 11:25:00,57.4,30.0,17.72,SSE,152,0.0,0.0,35,0.00,,---,0.00,VWS V14.00,2013-02-05 18:25:00,
2013-02-05 11:30:00,57.4,30.0,17.72,East,91,2.7,4.9,35,0.00,,---,0.00,VWS V14.00,2013-02-05 18:30:00,
2013-02-05 11:35:00,55.8,28.5,17.72,East,83,0.0,3.6,35,0.00,,---,0.00,VWS V14.00,2013-02-05 18:35:00,
2013-02-05 11:40:00,55.6,28.4,17.72,SE,124,0.0,3.1,35,0.00,,---,0.00,VWS V14.00,2013-02-05 18:40:00,
2013-02-05 11:45:00,55.6,28.4,17.72,North,357,2.2,2.7,35,0.00,,---,0.00,VWS V14.00,2013-02-05 18:45:00,
2013-02-05 11:50:00,56.1,28.9,17.72,North,1,5.4,6.3,35,0.00,,---,0.00,VWS V14.00,2013-02-05 18:50:00,
2013-02-05 11:55:00,55.9,28.7,17.72,East,82,3.6,6.3,35,0.00,,---,0.00,VWS V14.00,2013-02-05 18:55:00,
2013-02-05 12:01:00,55.9,28.7,17.72,East,85,3.6,7.6,35,0.00,,---,0.00,VWS V14.00,2013-02-05 19:01:00,
2013-02-05 12:06:00,56.5,29.2,17.72,SE,124,0.0,0.0,35,0.00,,---,0.00,VWS V14.00,2013-02-05 19:06:00,
2013-02-05 12:11:00,57.0,29.7,17.72,SE,146,2.7,4.0,35,0.00,,---,0.00,VWS V14.00,2013-02-05 19:11:00,
2013-02-05 12:16:00,57.2,29.8,17.72,ESE,123,2.7,4.0,35,0.00,,---,0.00,VWS V14.00,2013-02-05 19:16:00,
2013-02-05 12:21:00,57.0,29.7,17.72,NNE,15,4.0,4.0,35,0.00,,---,0.00,VWS V14.00,2013-02-05 19:21:00,
2013-02-05 12:26:00,57.0,29.7,17.72,ENE,75,5.8,5.8,35,0.00,,---,0.00,VWS V14.00,2013-02-05 19:26:00,
2013-02-05 12:31:00,56.3,29.0,17.72,ESE,118,3.1,3.1,35,0.00,,---,0.00,VWS V14.00,2013-02-05 19:31:00,
2013-02-05 12:36:00,56.3,29.0,17.72,East,83,5.4,5.4,35,0.00,,---,0.00,VWS V14.00,2013-02-05 19:36:00,
2013-02-05 12:41:00,56.7,29.3,17.72,NE,36,2.7,2.7,35,0.00,,---,0.00,VWS V14.00,2013-02-05 19:41:00,
2013-02-05 12:46:00,57.4,30.0,17.72,SE,125,6.3,6.3,35,0.00,,---,0.00,VWS V14.00,2013-02-05 19:46:00,
2013-02-05 12:51:00,59.0,31.4,17.72,SE,139,4.0,4.0,35,0.00,,---,0.00,VWS V14.00,2013-02-05 19:51:00,
2013-02-05 12:56:00,61.5,32.9,17.72,SSE,147,3.1,4.0,34,0.00,,---,0.00,VWS V14.00,2013-02-05 19:56:00,
2013-02-05 13:01:00,60.6,32.8,17.72,SE,145,5.4,5.4,35,0.00,,---,0.00,VWS V14.00,2013-02-05 20:01:00,
2013-02-05 13:06:00,60.8,32.3,17.72,East,84,4.0,4.0,34,0.00,,---,0.00,VWS V14.00,2013-02-05 20:06:00,
2013-02-05 13:11:00,60.4,32.7,17.72,SSE,149,4.0,4.0,35,0.00,,---,0.00,VWS V14.00,2013-02-05 20:11:00,
2013-02-05 13:16:00,61.5,32.9,17.72,SSE,149,4.9,5.4,34,0.00,,---,0.00,VWS V14.00,2013-02-05 20:16:00,
2013-02-05 13:22:00,62.2,33.5,17.72,WNW,284,2.7,2.7,34,0.00,,---,0.00,VWS V14.00,2013-02-05 20:22:00,
2013-02-05 13:27:00,60.6,32.8,17.72,East,92,2.7,3.1,35,0.00,,---,0.00,VWS V14.00,2013-02-05 20:27:00,
2013-02-05 13:32:00,58.6,31.1,17.72,NNE,29,3.6,4.0,35,0.00,,---,0.00,VWS V14.00,2013-02-05 20:32:00,
2013-02-05 13:37:00,57.6,30.1,17.72,East,90,3.1,3.1,35,0.00,,---,0.00,VWS V14.00,2013-02-05 20:37:00,
2013-02-05 13:42:00,57.2,29.8,17.72,NE,48,3.1,3.1,35,0.00,,---,0.00,VWS V14.00,2013-02-05 20:42:00,
2013-02-05 13:47:00,56.5,29.2,17.72,SE,146,2.7,5.8,35,0.00,,---,0.00,VWS V14.00,2013-02-05 20:47:00,
2013-02-05 13:52:00,56.3,29.0,17.72,South,176,0.0,2.2,35,0.00,,---,0.00,VWS V14.00,2013-02-05 20:52:00,
2013-02-05 13:57:00,55.9,28.7,17.72,ESE,111,2.7,2.7,35,0.00,,---,0.00,VWS V14.00,2013-02-05 20:57:00,
2013-02-05 14:02:00,55.0,28.6,17.72,North,357,3.6,5.8,36,0.00,,---,0.00,VWS V14.00,2013-02-05 21:02:00,
2013-02-05 14:07:00,54.7,28.3,17.72,West,259,0.0,0.0,36,0.00,,---,0.00,VWS V14.00,2013-02-05 21:07:00,
2013-02-05 14:12:00,54.5,28.1,17.72,ESE,106,3.6,4.0,36,0.00,,---,0.00,VWS V14.00,2013-02-05 21:12:00,
2013-02-05 14:17:00,54.3,28.0,17.72,North,8,3.1,3.6,36,0.00,,---,0.00,VWS V14.00,2013-02-05 21:17:00,
2013-02-05 14:22:00,54.1,27.8,17.72,SE,145,4.0,4.0,36,0.00,,---,0.00,VWS V14.00,2013-02-05 21:22:00,
2013-02-05 14:27:00,54.5,28.1,17.72,South,191,0.0,2.7,36,0.00,,---,0.00,VWS V14.00,2013-02-05 21:27:00,
2013-02-05 14:32:00,54.3,28.0,17.72,East,96,2.7,2.7,36,0.00,,---,0.00,VWS V14.00,2013-02-05 21:32:00,
2013-02-05 14:38:00,54.0,27.6,17.72,NW,311,0.0,3.1,36,0.00,,---,0.00,VWS V14.00,2013-02-05 21:38:00,
2013-02-05 14:43:00,54.1,27.8,17.72,East,101,3.6,3.6,36,0.00,,---,0.00,VWS V14.00,2013-02-05 21:43:00,
2013-02-05 14:48:00,54.1,27.8,17.72,SSW,205,5.4,5.4,36,0.00,,---,0.00,VWS V14.00,2013-02-05 21:48:00,
2013-02-05 14:53:00,54.5,28.1,17.72,West,261,0.0,0.0,36,0.00,,---,0.00,VWS V14.00,2013-02-05 21:53:00,
2013-02-05 14:58:00,54.9,28.4,17.72,WNW,283,3.6,4.0,36,0.00,,---,0.00,VWS V14.00,2013-02-05 21:58:00,
2013-02-05 15:03:00,54.5,28.1,17.72,ESE,102,0.0,3.1,36,0.00,,---,0.00,VWS V14.00,2013-02-05 22:03:00,
2013-02-05 15:08:00,54.5,28.1,17.72,West,267,3.1,3.1,36,0.00,,---,0.00,VWS V14.00,2013-02-05 22:08:00,
2013-02-05 15:13:00,54.5,28.1,17.72,WSW,253,3.1,3.1,36,0.00,,---,0.00,VWS V14.00,2013-02-05 22:13:00,
2013-02-05 15:18:00,54.5,28.1,17.72,SSW,207,0.0,0.0,36,0.00,,---,0.00,VWS V14.00,2013-02-05 22:18:00,
2013-02-05 15:23:00,54.5,28.1,17.72,SSW,213,3.1,3.1,36,0.00,,---,0.00,VWS V14.00,2013-02-05 22:23:00,
2013-02-05 15:28:00,54.5,28.1,17.72,SSW,210,2.7,3.6,36,0.00,,---,0.00,VWS V14.00,2013-02-05 22:28:00,
2013-02-05 15:33:00,54.3,28.0,17.72,WSW,244,3.1,3.6,36,0.00,,---,0.00,VWS V14.00,2013-02-05 22:33:00,
2013-02-05 15:38:00,54.1,27.8,17.72,SE,135,2.7,3.6,36,0.00,,---,0.00,VWS V14.00,2013-02-05 22:38:00,
2013-02-05 15:44:00,54.1,27.8,17.72,SE,141,2.7,3.6,36,0.00,,---,0.00,VWS V14.00,2013-02-05 22:44:00,
2013-02-05 15:49:00,54.1,27.8,17.72,WSW,237,2.7,5.8,36,0.00,,---,0.00,VWS V14.00,2013-02-05 22:49:00,
2013-02-05 15:54:00,54.0,27.6,17.72,SSE,148,2.7,2.7,36,0.00,,---,0.00,VWS V14.00,2013-02-05 22:54:00,
2013-02-05 15:59:00,53.6,27.3,17.72,SSE,149,6.3,6.3,36,0.00,,---,0.00,VWS V14.00,2013-02-05 22:59:00,
2013-02-05 16:04:00,53.2,27.0,17.72,South,170,3.1,6.3,36,0.00,,---,0.00,VWS V14.00,2013-02-05 23:04:00,
2013-02-05 16:09:00,53.1,26.8,17.72,SSW,201,3.1,3.1,36,0.00,,---,0.00,VWS V14.00,2013-02-05 23:09:00,
2013-02-05 16:14:00,53.1,26.8,17.72,South,189,4.0,4.0,36,0.00,,---,0.00,VWS V14.00,2013-02-05 23:14:00,
2013-02-05 16:19:00,53.1,26.8,17.72,SSW,208,0.0,0.0,36,0.00,,---,0.00,VWS V14.00,2013-02-05 23:19:00,
2013-02-05 16:24:00,53.6,27.3,17.72,SSW,203,2.7,4.0,36,0.00,,---,0.00,VWS V14.00,2013-02-05 23:24:00,
2013-02-05 16:29:00,54.0,27.6,17.72,South,182,4.0,4.0,36,0.00,,---,0.00,VWS V14.00,2013-02-05 23:29:00,
2013-02-05 16:34:00,54.1,27.8,17.72,SW,217,3.6,3.6,36,0.00,,---,0.00,VWS V14.00,2013-02-05 23:34:00,
2013-02-05 16:39:00,54.3,28.0,17.72,SW,223,2.7,3.1,36,0.00,,---,0.00,VWS V14.00,2013-02-05 23:39:00,
2013-02-05 16:45:00,54.3,28.0,17.72,SW,223,4.9,4.9,36,0.00,,---,0.00,VWS V14.00,2013-02-05 23:45:00,
2013-02-05 16:50:00,54.5,28.1,17.72,South,181,3.1,4.0,36,0.00,,---,0.00,VWS V14.00,2013-02-05 23:50:00,
2013-02-05 16:55:00,54.7,28.3,17.72,SSW,202,4.0,5.4,36,0.00,,---,0.00,VWS V14.00,2013-02-05 23:55:00,
2013-02-05 17:00:00,54.9,28.4,17.72,SSW,196,4.0,4.0,36,0.00,,---,0.00,VWS V14.00,2013-02-06 00:00:00,
2013-02-05 17:05:00,55.0,28.6,17.72,SSW,201,2.7,2.7,36,0.00,,---,0.00,VWS V14.00,2013-02-06 00:05:00,
2013-02-05 17:10:00,55.0,28.6,17.72,SSE,166,2.7,2.7,36,0.00,,---,0.00,VWS V14.00,2013-02-06 00:10:00,
2013-02-05 17:15:00,54.9,28.4,17.72,SSW,208,0.0,3.1,36,0.00,,---,0.00,VWS V14.00,2013-02-06 00:15:00,
2013-02-05 17:20:00,54.5,28.1,17.72,SSW,194,4.0,4.0,36,0.00,,---,0.00,VWS V14.00,2013-02-06 00:20:00,
2013-02-05 17:25:00,53.8,27.5,17.72,South,184,2.7,3.6,36,0.00,,---,0.00,VWS V14.00,2013-02-06 00:25:00,
2013-02-05 17:30:00,53.2,27.0,17.72,SSW,192,0.0,0.0,36,0.00,,---,0.00,VWS V14.00,2013-02-06 00:30:00,
2013-02-05 17:35:00,52.5,26.4,17.72,West,262,5.8,5.8,36,0.00,,---,0.00,VWS V14.00,2013-02-06 00:35:00,
2013-02-05 17:40:00,51.4,26.0,17.72,West,277,3.1,4.0,37,0.00,,---,0.00,VWS V14.00,2013-02-06 00:40:00,
2013-02-05 17:46:00,50.4,25.1,17.72,SW,220,0.0,0.0,37,0.00,,---,0.00,VWS V14.00,2013-02-06 00:46:00,
2013-02-05 17:51:00,49.5,24.3,17.72,SW,229,3.6,3.6,37,0.00,,---,0.00,VWS V14.00,2013-02-06 00:51:00,
2013-02-05 17:56:00,48.7,23.6,17.72,SW,229,0.0,0.0,37,0.00,,---,0.00,VWS V14.00,2013-02-06 00:56:00,
2013-02-05 18:01:00,47.8,22.9,17.72,SW,235,2.7,2.7,37,0.00,,---,0.00,VWS V14.00,2013-02-06 01:01:00,
2013-02-05 18:06:00,47.1,22.2,17.72,SW,235,0.0,0.0,37,0.00,,---,0.00,VWS V14.00,2013-02-06 01:06:00,
2013-02-05 18:11:00,46.2,22.0,17.72,SW,235,0.0,0.0,38,0.00,,---,0.00,VWS V14.00,2013-02-06 01:11:00,
2013-02-05 18:16:00,45.3,21.2,17.72,SW,235,0.0,0.0,38,0.00,,---,0.00,VWS V14.00,2013-02-06 01:16:00,
2013-02-05 18:21:00,44.2,20.3,17.72,SW,235,0.0,0.0,38,0.00,,---,0.00,VWS V14.00,2013-02-06 01:21:00,
2013-02-05 18:26:00,43.5,19.6,17.72,SW,235,0.0,0.0,38,0.00,,---,0.00,VWS V14.00,2013-02-06 01:26:00,
2013-02-05 18:32:00,42.6,19.4,17.72,SW,235,0.0,0.0,39,0.00,,---,0.00,VWS V14.00,2013-02-06 01:32:00,
2013-02-05 18:37:00,41.7,18.6,17.72,SW,235,0.0,0.0,39,0.00,,---,0.00,VWS V14.00,2013-02-06 01:37:00,
2013-02-05 18:42:00,41.0,18.0,17.72,SW,235,0.0,0.0,39,0.00,,---,0.00,VWS V14.00,2013-02-06 01:42:00,
2013-02-05 18:47:00,40.3,17.3,17.72,SW,235,0.0,0.0,39,0.00,,---,0.00,VWS V14.00,2013-02-06 01:47:00,
2013-02-05 18:52:00,39.4,16.5,17.72,SW,235,0.0,0.0,39,0.00,,---,0.00,VWS V14.00,2013-02-06 01:52:00,
2013-02-05 18:57:00,38.7,15.9,17.72,SW,235,0.0,0.0,39,0.00,,---,0.00,VWS V14.00,2013-02-06 01:57:00,
2013-02-05 19:02:00,38.1,15.4,17.72,SW,235,0.0,0.0,39,0.00,,---,0.00,VWS V14.00,2013-02-06 02:02:00,
2013-02-05 19:07:00,37.4,14.7,17.72,SW,235,0.0,0.0,39,0.00,,---,0.00,VWS V14.00,2013-02-06 02:07:00,
2013-02-05 19:13:00,36.9,14.8,17.72,SW,235,0.0,0.0,40,0.00,,---,0.00,VWS V14.00,2013-02-06 02:13:00,
2013-02-05 19:18:00,36.3,14.3,17.72,SW,235,0.0,0.0,40,0.00,,---,0.00,VWS V14.00,2013-02-06 02:18:00,
2013-02-05 19:23:00,35.8,13.8,17.72,SW,235,0.0,0.0,40,0.00,,---,0.00,VWS V14.00,2013-02-06 02:23:00,
2013-02-05 19:28:00,35.2,13.4,17.72,SW,235,0.0,0.0,40,0.00,,---,0.00,VWS V14.00,2013-02-06 02:28:00,
2013-02-05 19:33:00,34.7,12.9,17.72,SW,235,0.0,0.0,40,0.00,,---,0.00,VWS V14.00,2013-02-06 02:33:00,
2013-02-05 19:38:00,34.2,12.4,17.72,SW,235,0.0,0.0,40,0.00,,---,0.00,VWS V14.00,2013-02-06 02:38:00,
2013-02-05 19:43:00,33.8,12.1,17.72,SW,235,0.0,0.0,40,0.00,,---,0.00,VWS V14.00,2013-02-06 02:43:00,
2013-02-05 19:48:00,33.6,12.4,17.72,SW,235,0.0,0.0,41,0.00,,---,0.00,VWS V14.00,2013-02-06 02:48:00,
2013-02-05 19:54:00,33.3,12.1,17.72,SW,235,0.0,0.0,41,0.00,,---,0.00,VWS V14.00,2013-02-06 02:54:00,
2013-02-05 19:59:00,32.7,11.6,17.72,SW,235,0.0,0.0,41,0.00,,---,0.00,VWS V14.00,2013-02-06 02:59:00,
2013-02-05 20:04:00,32.5,11.5,17.72,SW,235,0.0,0.0,41,0.00,,---,0.00,VWS V14.00,2013-02-06 03:04:00,
2013-02-05 20:09:00,32.2,11.1,17.72,SW,235,0.0,0.0,41,0.00,,---,0.00,VWS V14.00,2013-02-06 03:09:00,
2013-02-05 20:14:00,31.8,10.8,17.72,SW,235,0.0,0.0,41,0.00,,---,0.00,VWS V14.00,2013-02-06 03:14:00,
2013-02-05 20:19:00,31.5,10.5,17.72,SW,235,0.0,0.0,41,0.00,,---,0.00,VWS V14.00,2013-02-06 03:19:00,
2013-02-05 20:24:00,31.1,10.2,17.72,SW,235,0.0,0.0,41,0.00,,---,0.00,VWS V14.00,2013-02-06 03:24:00,
2013-02-05 20:29:00,30.9,10.0,17.72,SW,235,0.0,0.0,41,0.00,,---,0.00,VWS V14.00,2013-02-06 03:29:00,
2013-02-05 20:34:00,30.6,9.7,17.72,SW,235,0.0,0.0,41,0.00,,---,0.00,VWS V14.00,2013-02-06 03:34:00,
2013-02-05 20:39:00,30.4,9.5,17.72,SW,235,0.0,0.0,41,0.00,,---,0.00,VWS V14.00,2013-02-06 03:39:00,
2013-02-05 20:45:00,30.2,9.4,17.72,SW,235,0.0,0.0,41,0.00,,---,0.00,VWS V14.00,2013-02-06 03:45:00,
2013-02-05 20:50:00,30.0,9.2,17.72,SW,235,0.0,0.0,41,0.00,,---,0.00,VWS V14.00,2013-02-06 03:50:00,
2013-02-05 20:55:00,29.8,9.0,17.72,SW,235,0.0,0.0,41,0.00,,---,0.00,VWS V14.00,2013-02-06 03:55:00,
2013-02-05 21:00:00,29.7,8.9,17.72,SW,235,0.0,0.0,41,0.00,,---,0.00,VWS V14.00,2013-02-06 04:00:00,
2013-02-05 21:05:00,29.5,8.7,17.72,SW,235,0.0,0.0,41,0.00,,---,0.00,VWS V14.00,2013-02-06 04:05:00,
2013-02-05 21:10:00,29.5,8.7,17.72,SW,235,0.0,0.0,41,0.00,,---,0.00,VWS V14.00,2013-02-06 04:10:00,
2013-02-05 21:15:00,29.3,8.5,17.72,SW,235,0.0,0.0,41,0.00,,---,0.00,VWS V14.00,2013-02-06 04:15:00,
2013-02-05 21:20:00,29.1,8.4,17.72,SW,235,0.0,0.0,41,0.00,,---,0.00,VWS V14.00,2013-02-06 04:20:00,
2013-02-05 21:25:00,28.9,8.2,17.72,SW,235,0.0,0.0,41,0.00,,---,0.00,VWS V14.00,2013-02-06 04:25:00,
2013-02-05 21:30:00,28.8,8.0,17.72,SW,235,0.0,0.0,41,0.00,,---,0.00,VWS V14.00,2013-02-06 04:30:00,
2013-02-05 21:35:00,28.8,8.0,17.72,SW,235,0.0,0.0,41,0.00,,---,0.00,VWS V14.00,2013-02-06 04:35:00,
2013-02-05 21:40:00,28.6,7.9,17.72,SW,235,0.0,0.0,41,0.00,,---,0.00,VWS V14.00,2013-02-06 04:40:00,
2013-02-05 21:46:00,28.4,7.7,17.72,SW,235,0.0,0.0,41,0.00,,---,0.00,VWS V14.00,2013-02-06 04:46:00,
2013-02-05 21:51:00,28.2,7.6,17.72,SW,235,0.0,0.0,41,0.00,,---,0.00,VWS V14.00,2013-02-06 04:51:00,
2013-02-05 21:56:00,28.0,7.4,17.72,SW,235,0.0,0.0,41,0.00,,---,0.00,VWS V14.00,2013-02-06 04:56:00,
2013-02-05 22:00:00,27.9,7.2,17.72,SW,235,0.0,0.0,41,0.00,,---,0.00,VWS V14.00,2013-02-06 05:00:00,
2013-02-05 22:01:00,27.9,7.2,17.72,SW,235,0.0,0.0,41,0.00,,---,0.00,VWS V14.00,2013-02-06 05:01:00,
2013-02-05 22:06:00,27.7,7.1,17.72,SW,235,0.0,0.0,41,0.00,,---,0.00,VWS V14.00,2013-02-06 05:06:00,
2013-02-05 22:11:00,27.7,7.1,17.72,SW,235,0.0,0.0,41,0.00,,---,0.00,VWS V14.00,2013-02-06 05:11:00,
2013-02-05 22:16:00,27.5,6.9,17.72,SW,235,0.0,0.0,41,0.00,,---,0.00,VWS V14.00,2013-02-06 05:16:00,
2013-02-05 22:21:00,27.3,6.7,17.72,SW,235,0.0,0.0,41,0.00,,---,0.00,VWS V14.00,2013-02-06 05:21:00,
2013-02-05 22:26:00,27.3,6.7,17.72,SW,235,0.0,0.0,41,0.00,,---,0.00,VWS V14.00,2013-02-06 05:26:00,
2013-02-05 22:31:00,27.1,6.6,17.72,SW,235,0.0,0.0,41,0.00,,---,0.00,VWS V14.00,2013-02-06 05:31:00,
2013-02-05 22:36:00,27.1,6.6,17.72,SW,235,0.0,0.0,41,0.00,,---,0.00,VWS V14.00,2013-02-06 05:36:00,
2013-02-05 22:41:00,27.1,6.6,17.72,SW,235,0.0,0.0,41,0.00,,---,0.00,VWS V14.00,2013-02-06 05:41:00,
2013-02-05 22:46:00,27.0,6.4,17.72,SW,235,0.0,0.0,41,0.00,,---,0.00,VWS V14.00,2013-02-06 05:46:00,
2013-02-05 22:51:00,26.8,6.2,17.72,SW,235,0.0,0.0,41,0.00,,---,0.00,VWS V14.00,2013-02-06 05:51:00,
2013-02-05 22:56:00,26.8,6.2,17.72,SW,235,0.0,0.0,41,0.00,,---,0.00,VWS V14.00,2013-02-06 05:56:00,
2013-02-05 23:01:00,26.6,6.6,17.72,SW,235,0.0,0.0,42,0.00,,---,0.00,VWS V14.00,2013-02-06 06:01:00,
2013-02-05 23:06:00,26.4,6.4,17.72,SW,235,0.0,0.0,42,0.00,,---,0.00,VWS V14.00,2013-02-06 06:06:00,
2013-02-05 23:11:00,26.4,6.4,17.72,SW,235,0.0,0.0,42,0.00,,---,0.00,VWS V14.00,2013-02-06 06:11:00,
2013-02-05 23:16:00,26.4,6.4,17.72,SW,235,0.0,0.0,42,0.00,,---,0.00,VWS V14.00,2013-02-06 06:16:00,
2013-02-05 23:21:00,26.2,6.3,17.72,SW,235,0.0,0.0,42,0.00,,---,0.00,VWS V14.00,2013-02-06 06:21:00,
2013-02-05 23:26:00,26.2,6.3,17.72,SW,235,0.0,0.0,42,0.00,,---,0.00,VWS V14.00,2013-02-06 06:26:00,
2013-02-05 23:31:00,26.2,6.3,17.72,SW,235,0.0,0.0,42,0.00,,---,0.00,VWS V14.00,2013-02-06 06:31:00,
2013-02-05 23:36:00,26.1,6.1,17.72,SW,235,0.0,0.0,42,0.00,,---,0.00,VWS V14.00,2013-02-06 06:36:00,
2013-02-05 23:42:00,26.1,6.1,17.72,SW,235,0.0,0.0,42,0.00,,---,0.00,VWS V14.00,2013-02-06 06:42:00,
2013-02-05 23:47:00,25.9,6.0,17.72,SW,235,0.0,0.0,42,0.00,,---,0.00,VWS V14.00,2013-02-06 06:47:00,
2013-02-05 23:52:00,25.9,6.0,17.72,SW,235,0.0,0.0,42,0.00,,---,0.00,VWS V14.00,2013-02-06 06:52:00,
2013-02-05 23:57:00,25.9,6.0,17.72,SW,235,0.0,0.0,42,0.00,,---,0.00,VWS V14.00,2013-02-06 06:57:00,